createdAt,value
2022-08-05T00:02:07.424Z,5.55
2022-08-05T00:04:37.778Z,8.40
2022-08-05T00:07:27.039Z,10.45
2022-08-05T00:09:53.508Z,9.88
2022-08-05T00:12:21.450Z,10.07
2022-08-05T00:14:48.633Z,6.95
2022-08-05T00:17:28.550Z,10.07
2022-08-05T00:20:02.418Z,7.38
2022-08-05T00:22:29.539Z,14.40
2022-08-05T00:24:57.580Z,12.02
2022-08-05T00:27:35.801Z,10.15
2022-08-05T00:30:04.319Z,12.77
2022-08-05T00:32:30.818Z,13.77
2022-08-05T00:35:06.603Z,11.48
2022-08-05T00:37:51.159Z,15.50
2022-08-05T00:40:27.316Z,10.65
2022-08-05T00:42:56.793Z,12.10
2022-08-05T00:45:28.107Z,8.82
2022-08-05T00:48:07.353Z,12.77
2022-08-05T00:50:34.195Z,10.13
2022-08-05T00:53:00.935Z,12.98
2022-08-05T00:55:42.265Z,12.52
2022-08-05T00:58:11.561Z,11.30
2022-08-05T01:00:39.151Z,16.33
2022-08-05T01:03:07.651Z,16.83
2022-08-05T01:05:35.350Z,14.32
2022-08-05T01:08:40.069Z,12.52
2022-08-05T01:10:59.609Z,17.40
2022-08-05T01:13:59.187Z,12.13
2022-08-05T01:16:37.343Z,15.25
2022-08-05T01:19:56.213Z,16.13
2022-08-05T01:22:24.410Z,12.70
2022-08-05T01:25:15.602Z,11.60
2022-08-05T01:28:11.309Z,13.30
2022-08-05T01:30:50.610Z,11.57
2022-08-05T01:33:26.242Z,14.95
2022-08-05T01:35:55.635Z,10.95
2022-08-05T01:38:29.413Z,12.25
2022-08-05T01:41:01.403Z,8.77
2022-08-05T01:43:29.656Z,9.95
2022-08-05T01:45:57.857Z,8.70
2022-08-05T01:48:27.243Z,9.63
2022-08-05T01:50:56.315Z,14.55
2022-08-05T01:53:54.869Z,10.60
2022-08-05T01:56:13.958Z,9.25
2022-08-05T01:59:03.955Z,10.60
2022-08-05T02:01:39.726Z,10.48
2022-08-05T02:04:09.123Z,10.35
2022-08-05T02:06:38.969Z,9.18
2022-08-05T02:09:07.392Z,7.15
2022-08-05T02:11:47.758Z,7.57
2022-08-05T02:14:26.852Z,5.28
2022-08-05T02:16:55.841Z,11.50
2022-08-05T02:19:34.417Z,8.10
2022-08-05T02:22:09.069Z,9.32
2022-08-05T02:24:51.372Z,9.82
2022-08-05T02:27:21.572Z,9.85
2022-08-05T02:30:00.944Z,11.20
2022-08-05T02:32:31.428Z,8.85
2022-08-05T02:35:13.811Z,8.80
2022-08-05T02:37:47.828Z,5.15
2022-08-05T02:40:21.479Z,8.32
2022-08-05T02:42:53.062Z,7.35
2022-08-05T02:45:23.929Z,8.93
2022-08-05T02:48:07.033Z,11.07
2022-08-05T02:50:45.937Z,8.30
2022-08-05T02:53:16.046Z,8.85
2022-08-05T02:55:53.803Z,10.25
2022-08-05T02:58:26.497Z,10.63
2022-08-05T03:00:56.563Z,8.18
2022-08-05T03:03:23.865Z,9.13
2022-08-05T03:06:56.940Z,8.30
2022-08-05T03:08:42.378Z,10.57
2022-08-05T03:11:54.998Z,10.30
2022-08-05T03:14:13.516Z,10.27
2022-08-05T03:16:40.673Z,11.55
2022-08-05T03:19:17.058Z,14.55
2022-08-05T03:21:54.514Z,11.75
2022-08-05T03:24:29.447Z,16.33
2022-08-05T03:26:57.421Z,14.18
2022-08-05T03:29:24.545Z,12.02
2022-08-05T03:32:12.215Z,15.63
2022-08-05T03:34:42.230Z,13.45
2022-08-05T03:37:18.558Z,13.20
2022-08-05T03:40:01.101Z,14.07
2022-08-05T03:42:29.301Z,11.52
2022-08-05T03:44:59.009Z,14.50
2022-08-05T03:47:30.653Z,11.13
2022-08-05T03:50:02.127Z,9.02
2022-08-05T03:52:49.385Z,17.70
2022-08-05T03:56:04.251Z,14.43
2022-08-05T03:58:28.944Z,13.15
2022-08-05T04:00:59.922Z,16.67
2022-08-05T04:03:29.423Z,19.45
2022-08-05T04:05:58.090Z,13.10
2022-08-05T04:08:34.858Z,15.65
2022-08-05T04:11:05.163Z,20.40
2022-08-05T04:13:50.036Z,14.75
2022-08-05T04:16:25.521Z,16.10
2022-08-05T04:19:00.065Z,21.63
2022-08-05T04:22:05.735Z,18.13
2022-08-05T04:24:19.703Z,17.65
2022-08-05T04:26:49.462Z,20.92
2022-08-05T04:29:16.515Z,15.30
2022-08-05T04:31:43.096Z,22.13
2022-08-05T04:34:33.031Z,17.98
2022-08-05T04:36:56.463Z,22.58
2022-08-05T04:39:23.348Z,21.80
2022-08-05T04:41:50.930Z,23.00
2022-08-05T04:44:21.297Z,22.65
2022-08-05T04:46:56.642Z,23.30
2022-08-05T04:49:24.493Z,22.40
2022-08-05T04:52:05.053Z,23.83
2022-08-05T04:57:00.603Z,23.13
2022-08-05T04:59:39.131Z,29.02
2022-08-05T05:02:37.403Z,28.65
2022-08-05T05:05:02.753Z,27.17
2022-08-05T05:07:32.103Z,21.88
2022-08-05T05:09:59.662Z,23.48
2022-08-05T05:14:55.659Z,29.77
2022-08-05T05:17:24.582Z,32.90
2022-08-05T05:19:55.176Z,30.17
2022-08-05T05:22:26.322Z,30.15
2022-08-05T05:24:59.982Z,25.42
2022-08-05T05:27:44.395Z,26.27
2022-08-05T05:30:15.508Z,26.85
2022-08-05T05:32:55.875Z,37.40
2022-08-05T05:35:23.158Z,26.05
2022-08-05T05:37:59.857Z,30.10
2022-08-05T05:40:29.505Z,31.20
2022-08-05T05:42:56.899Z,30.73
2022-08-05T05:45:24.731Z,26.55
2022-08-05T05:48:06.052Z,24.35
2022-08-05T05:50:41.279Z,24.23
2022-08-05T05:53:21.436Z,23.10
2022-08-05T05:55:52.141Z,22.40
2022-08-05T05:58:30.268Z,23.80
2022-08-05T06:01:12.297Z,25.60
2022-08-05T06:04:01.101Z,24.48
2022-08-05T06:06:27.948Z,21.25
2022-08-05T06:08:58.213Z,22.25
2022-08-05T06:11:24.739Z,20.40
2022-08-05T06:13:53.965Z,23.55
2022-08-05T06:16:29.348Z,20.88
2022-08-05T06:19:01.273Z,23.20
2022-08-05T06:21:37.141Z,20.17
2022-08-05T06:24:11.472Z,21.85
2022-08-05T06:26:51.059Z,22.38
2022-08-05T06:29:45.370Z,27.00
2022-08-05T06:32:21.441Z,26.50
2022-08-05T06:34:56.155Z,23.48
2022-08-05T06:37:56.462Z,24.98
2022-08-05T06:40:17.883Z,22.58
2022-08-05T06:42:48.096Z,23.95
2022-08-05T06:45:21.277Z,20.73
2022-08-05T06:48:35.995Z,22.42
2022-08-05T06:50:52.481Z,21.98
2022-08-05T06:53:22.541Z,20.92
2022-08-05T06:55:54.707Z,19.80
2022-08-05T06:58:29.629Z,23.23
2022-08-05T07:01:02.730Z,19.83
2022-08-05T07:03:32.704Z,20.80
2022-08-05T07:06:05.894Z,21.88
2022-08-05T07:08:42.967Z,25.35
2022-08-05T07:11:15.244Z,21.58
2022-08-05T07:14:01.262Z,20.80
2022-08-05T07:18:00.691Z,16.95
2022-08-05T07:22:27.891Z,21.80
2022-08-05T07:25:21.909Z,19.42
2022-08-05T07:27:58.605Z,21.65
2022-08-05T07:30:33.741Z,22.15
2022-08-05T07:33:10.010Z,23.05
2022-08-05T07:36:02.812Z,24.48
2022-08-05T07:38:32.322Z,31.20
2022-08-05T07:42:09.648Z,21.98
2022-08-05T07:43:58.334Z,22.10
2022-08-05T07:46:27.104Z,25.42
2022-08-05T07:49:04.076Z,24.08
2022-08-05T07:51:40.768Z,30.17
2022-08-05T07:54:15.557Z,23.33
2022-08-05T07:57:01.694Z,23.33
2022-08-05T07:59:38.742Z,21.20
2022-08-05T08:02:16.686Z,21.75
2022-08-05T08:04:50.543Z,19.75
2022-08-05T08:07:22.407Z,22.70
2022-08-05T08:09:54.997Z,18.73
2022-08-05T08:12:33.507Z,21.25
2022-08-05T08:15:15.047Z,18.75
2022-08-05T08:17:49.637Z,22.38
2022-08-05T08:21:00.453Z,20.98
2022-08-05T08:23:59.935Z,17.63
2022-08-05T08:26:00.503Z,17.23
2022-08-05T08:28:37.138Z,20.08
2022-08-05T08:31:09.546Z,22.90
2022-08-05T08:33:41.370Z,18.55
2022-08-05T08:36:38.405Z,20.92
2022-08-05T08:38:55.713Z,20.33
2022-08-05T08:41:26.212Z,23.13
2022-08-05T08:45:17.714Z,20.73
2022-08-05T08:47:21.671Z,24.15
2022-08-05T08:50:05.720Z,24.60
2022-08-05T08:52:41.170Z,24.02
2022-08-05T08:55:14.209Z,22.30
2022-08-05T08:57:58.328Z,23.77
2022-08-05T09:00:26.213Z,25.83
2022-08-05T09:02:54.357Z,20.65
2022-08-05T09:05:38.395Z,18.77
2022-08-05T09:08:09.832Z,21.17
2022-08-05T09:10:36.835Z,21.52
2022-08-05T09:13:07.144Z,18.83
2022-08-05T09:15:36.998Z,22.95
2022-08-05T09:18:06.343Z,17.70
2022-08-05T09:20:37.307Z,21.08
2022-08-05T09:23:19.042Z,18.65
2022-08-05T09:26:06.837Z,17.67
2022-08-05T09:28:37.927Z,18.23
2022-08-05T09:31:22.806Z,13.30
2022-08-05T09:34:10.392Z,16.45
2022-08-05T09:36:56.268Z,15.25
2022-08-05T09:39:41.990Z,13.88
2022-08-05T09:42:23.473Z,14.20
2022-08-05T09:44:56.580Z,11.77
2022-08-05T09:47:34.914Z,10.68
2022-08-05T09:50:08.361Z,9.52
2022-08-05T09:52:36.192Z,8.23
2022-08-05T09:55:58.678Z,9.27
2022-08-05T09:57:59.844Z,9.15
2022-08-05T10:00:27.593Z,8.80
2022-08-05T10:05:28.561Z,8.07
2022-08-05T10:08:11.210Z,11.70
2022-08-05T10:10:50.181Z,10.18
2022-08-05T10:13:47.751Z,9.90
2022-08-05T10:16:41.787Z,9.07
2022-08-05T10:19:23.779Z,9.50
2022-08-05T10:22:09.079Z,7.55
2022-08-05T10:24:42.283Z,8.60
2022-08-05T10:27:14.333Z,11.20
2022-08-05T10:30:06.593Z,7.70
2022-08-05T10:32:52.338Z,7.88
2022-08-05T10:35:18.721Z,9.73
2022-08-05T10:37:47.526Z,9.50
2022-08-05T10:40:39.006Z,10.60
2022-08-05T10:43:36.324Z,12.75
2022-08-05T10:46:06.964Z,8.43
2022-08-05T10:48:58.164Z,8.93
2022-08-05T10:51:57.795Z,11.05
2022-08-05T10:55:02.293Z,8.15
2022-08-05T10:57:29.375Z,9.48
2022-08-05T11:00:14.778Z,7.88
2022-08-05T11:03:24.291Z,9.77
2022-08-05T11:06:05.159Z,9.88
2022-08-05T11:08:37.182Z,9.98
2022-08-05T11:11:44.356Z,8.88
2022-08-05T11:14:49.471Z,6.72
2022-08-05T11:17:59.859Z,7.75
2022-08-05T11:20:43.894Z,13.77
2022-08-05T11:23:33.223Z,8.75
2022-08-05T11:26:29.133Z,6.47
2022-08-05T11:29:12.634Z,7.85
2022-08-05T11:31:57.608Z,7.32
2022-08-05T11:34:50.882Z,7.32
2022-08-05T11:38:29.585Z,8.63
2022-08-05T11:41:00.356Z,6.38
2022-08-05T11:44:00.875Z,6.80
2022-08-05T11:46:32.553Z,5.75
2022-08-05T11:49:00.774Z,7.25
2022-08-05T11:51:43.715Z,4.78
2022-08-05T11:54:37.979Z,10.13
2022-08-05T11:57:07.942Z,6.82
2022-08-05T11:59:51.546Z,8.43
2022-08-05T12:02:30.524Z,7.75
2022-08-05T12:05:07.939Z,7.32
2022-08-05T12:08:08.264Z,6.07
2022-08-05T12:10:43.710Z,4.55
2022-08-05T12:13:28.141Z,4.80
2022-08-05T12:16:14.704Z,6.50
2022-08-05T12:18:48.683Z,6.60
2022-08-05T12:21:49.946Z,5.47
2022-08-05T12:24:19.345Z,4.20
2022-08-05T12:29:22.898Z,10.88
2022-08-05T12:31:53.596Z,5.05
2022-08-05T12:34:28.392Z,5.70
2022-08-05T12:36:57.114Z,5.05
2022-08-05T12:39:34.348Z,3.80
2022-08-05T12:42:09.037Z,5.13
2022-08-05T12:44:35.957Z,5.18
2022-08-05T12:47:02.910Z,3.40
2022-08-05T12:50:03.836Z,5.30
2022-08-05T12:52:41.734Z,6.40
2022-08-05T12:55:22.813Z,5.00
2022-08-05T12:58:50.807Z,3.47
2022-08-05T13:02:01.802Z,5.28
2022-08-05T13:03:39.002Z,7.25
2022-08-05T13:06:12.388Z,5.25
2022-08-05T13:08:40.142Z,4.55
2022-08-05T13:11:07.819Z,2.00
2022-08-05T13:14:05.133Z,5.93
2022-08-05T13:16:25.550Z,6.45
2022-08-05T13:18:58.360Z,3.30
2022-08-05T13:21:27.816Z,3.90
2022-08-05T13:23:55.352Z,6.22
2022-08-05T13:26:27.201Z,7.28
2022-08-05T13:28:57.351Z,5.95
2022-08-05T13:31:34.082Z,6.13
2022-08-05T13:34:22.766Z,2.67
2022-08-05T13:36:52.634Z,3.72
2022-08-05T13:40:13.775Z,3.72
2022-08-05T13:42:06.735Z,7.13
2022-08-05T13:44:34.645Z,7.43
2022-08-05T13:47:08.321Z,4.05
2022-08-05T13:49:35.946Z,2.95
2022-08-05T13:52:19.888Z,4.40
2022-08-05T13:54:56.599Z,5.78
2022-08-05T13:57:26.175Z,3.00
2022-08-05T14:00:12.808Z,4.15
2022-08-05T14:02:39.621Z,3.38
2022-08-05T14:05:15.447Z,3.45
2022-08-05T14:07:59.634Z,5.35
2022-08-05T14:10:32.344Z,6.45
2022-08-05T14:12:59.505Z,2.72
2022-08-05T14:16:04.602Z,4.97
2022-08-05T14:18:17.668Z,2.80
2022-08-05T14:20:54.612Z,3.83
2022-08-05T14:23:25.782Z,4.85
2022-08-05T14:25:58.718Z,3.00
2022-08-05T14:28:30.658Z,2.58
2022-08-05T14:30:58.677Z,3.63
2022-08-05T14:33:25.539Z,3.05
2022-08-05T14:35:54.487Z,4.20
2022-08-05T14:41:00.440Z,4.22
2022-08-05T14:43:59.480Z,9.23
2022-08-05T14:46:13.749Z,3.50
2022-08-05T14:48:40.550Z,4.75
2022-08-05T14:51:09.101Z,5.93
2022-08-05T14:53:44.633Z,3.42
2022-08-05T14:56:12.052Z,4.50
2022-08-05T14:58:47.607Z,3.55
2022-08-05T15:01:16.002Z,4.72
2022-08-05T15:03:44.210Z,6.00
2022-08-05T15:06:15.083Z,3.65
2022-08-05T15:08:59.705Z,4.45
2022-08-05T15:11:52.296Z,6.80
2022-08-05T15:14:33.584Z,2.72
2022-08-05T15:17:10.038Z,5.18
2022-08-05T15:19:57.412Z,3.50
2022-08-05T15:22:27.017Z,3.25
2022-08-05T15:24:55.124Z,5.22
2022-08-05T15:27:21.724Z,2.83
2022-08-05T15:29:52.543Z,6.45
2022-08-05T15:32:20.849Z,3.38
2022-08-05T15:34:54.236Z,2.92
2022-08-05T15:38:32.989Z,2.58
2022-08-05T15:40:59.157Z,4.53
2022-08-05T15:43:01.644Z,4.00
2022-08-05T15:45:38.892Z,2.90
2022-08-05T15:48:05.790Z,3.17
2022-08-05T15:50:33.485Z,0.68
2022-08-05T15:53:04.151Z,2.17
2022-08-05T15:56:02.687Z,1.95
2022-08-05T15:58:23.158Z,1.38
2022-08-05T16:01:11.881Z,0.77
2022-08-05T16:03:52.373Z,1.77
2022-08-05T16:06:26.310Z,1.02
2022-08-05T16:08:55.571Z,1.02
2022-08-05T16:11:39.988Z,0.40
2022-08-05T16:14:08.973Z,1.50
2022-08-05T16:19:09.766Z,2.22
2022-08-05T16:21:58.267Z,0.75
2022-08-05T16:24:41.165Z,2.67
2022-08-05T16:27:16.084Z,2.90
2022-08-05T16:29:50.003Z,1.95
2022-08-05T16:32:29.254Z,4.32
2022-08-05T16:34:58.888Z,3.05
2022-08-05T16:38:02.549Z,2.30
2022-08-05T16:40:26.622Z,0.98
2022-08-05T16:42:56.052Z,1.15
2022-08-05T16:46:06.669Z,1.63
2022-08-05T16:48:10.794Z,2.65
2022-08-05T16:50:52.227Z,2.88
2022-08-05T16:53:22.509Z,1.55
2022-08-05T16:55:49.847Z,2.92
2022-08-05T16:58:19.961Z,1.60
2022-08-05T17:00:48.156Z,2.58
2022-08-05T17:03:20.616Z,2.33
2022-08-05T17:05:53.618Z,3.42
2022-08-05T17:08:33.636Z,1.70
2022-08-05T17:11:03.823Z,2.78
2022-08-05T17:13:37.855Z,1.92
2022-08-05T17:16:29.689Z,1.17
2022-08-05T17:18:55.303Z,1.98
2022-08-05T17:21:23.741Z,1.80
2022-08-05T17:24:04.779Z,2.53
2022-08-05T17:26:36.062Z,0.70
2022-08-05T17:29:07.483Z,1.10
2022-08-05T17:31:56.848Z,1.33
2022-08-05T17:34:30.175Z,2.47
2022-08-05T17:36:59.924Z,1.75
2022-08-05T17:39:29.796Z,2.05
2022-08-05T17:42:19.921Z,3.80
2022-08-05T17:44:50.056Z,2.25
2022-08-05T17:47:22.601Z,1.67
2022-08-05T17:49:59.801Z,1.73
2022-08-05T17:52:30.570Z,3.75
2022-08-05T17:54:57.941Z,2.22
2022-08-05T17:57:24.645Z,3.92
2022-08-05T18:00:04.918Z,0.95
2022-08-05T18:02:34.364Z,1.15
2022-08-05T18:05:03.704Z,0.93
2022-08-05T18:07:41.657Z,2.15
2022-08-05T18:10:11.287Z,2.15
2022-08-05T18:15:22.918Z,2.80
2022-08-05T18:17:58.890Z,2.63
2022-08-05T18:20:32.678Z,2.60
2022-08-05T18:23:11.270Z,3.03
2022-08-05T18:25:45.262Z,1.88
2022-08-05T18:28:22.187Z,2.17
2022-08-05T18:30:56.137Z,1.08
2022-08-05T18:33:24.082Z,0.70
2022-08-05T18:36:03.409Z,1.73
2022-08-05T18:38:30.817Z,1.15
2022-08-05T18:41:54.250Z,3.42
2022-08-05T18:43:53.267Z,3.72
2022-08-05T18:46:21.831Z,1.95
2022-08-05T18:48:53.587Z,1.23
2022-08-05T18:52:05.203Z,1.95
2022-08-05T18:54:31.643Z,1.50
2022-08-05T18:57:01.983Z,1.50
2022-08-05T18:59:44.357Z,3.00
2022-08-05T19:02:27.997Z,2.03
2022-08-05T19:05:02.982Z,1.02
2022-08-05T19:07:46.110Z,2.15
2022-08-05T19:12:40.804Z,2.90
2022-08-05T19:15:25.233Z,1.70
2022-08-05T19:18:09.645Z,1.33
2022-08-05T19:20:41.409Z,2.47
2022-08-05T19:24:06.210Z,3.78
2022-08-05T19:26:02.214Z,4.50
2022-08-05T19:28:30.831Z,2.28
2022-08-05T19:30:58.411Z,0.88
2022-08-05T19:33:35.283Z,1.73
2022-08-05T19:36:06.979Z,1.55
2022-08-05T19:38:37.302Z,0.50
2022-08-05T19:41:09.024Z,0.95
2022-08-05T19:44:05.296Z,1.55
2022-08-05T19:46:29.048Z,3.67
2022-08-05T19:48:56.402Z,1.40
2022-08-05T19:51:59.802Z,2.20
2022-08-05T19:54:21.720Z,1.27
2022-08-05T19:56:58.037Z,0.80
2022-08-05T19:59:54.586Z,2.13
2022-08-05T20:02:12.750Z,2.92
2022-08-05T20:04:42.971Z,2.35
2022-08-05T20:07:13.693Z,3.72
2022-08-05T20:09:55.092Z,2.90
2022-08-05T20:12:25.131Z,1.85
2022-08-05T20:14:52.978Z,2.13
2022-08-05T20:17:23.497Z,3.70
2022-08-05T20:19:51.048Z,2.65
2022-08-05T20:22:24.000Z,1.75
2022-08-05T20:24:53.758Z,2.22
2022-08-05T20:27:21.005Z,1.42
2022-08-05T20:29:58.088Z,1.15
2022-08-05T20:32:27.071Z,2.75
2022-08-05T20:34:54.196Z,0.82
2022-08-05T20:38:04.950Z,2.42
2022-08-05T20:40:08.366Z,2.78
2022-08-05T20:42:35.392Z,2.70
2022-08-05T20:45:02.561Z,1.48
2022-08-05T20:47:32.272Z,1.30
2022-08-05T20:49:59.411Z,2.70
2022-08-05T20:52:26.533Z,5.30
2022-08-05T20:55:15.976Z,2.08
2022-08-05T20:57:43.488Z,5.47
2022-08-05T21:00:20.858Z,2.35
2022-08-05T21:03:06.243Z,1.00
2022-08-05T21:05:47.436Z,2.63
2022-08-05T21:08:20.888Z,1.20
2022-08-05T21:10:53.642Z,1.00
2022-08-05T21:13:26.124Z,1.70
2022-08-05T21:16:06.989Z,3.33
2022-08-05T21:18:34.332Z,4.63
2022-08-05T21:21:02.386Z,6.20
2022-08-05T21:23:28.849Z,0.77
2022-08-05T21:26:04.215Z,1.05
2022-08-05T21:28:50.569Z,2.53
2022-08-05T21:31:18.096Z,4.28
2022-08-05T21:33:47.614Z,1.25
2022-08-05T21:36:27.744Z,1.00
2022-08-05T21:38:56.928Z,1.52
2022-08-05T21:41:25.933Z,1.00
2022-08-05T21:44:03.870Z,1.27
2022-08-05T21:46:34.671Z,4.20
2022-08-05T21:49:02.284Z,3.58
2022-08-05T21:52:22.825Z,5.82
2022-08-05T21:54:17.929Z,1.00
2022-08-05T21:57:15.418Z,2.33
2022-08-05T22:00:02.104Z,1.60
2022-08-05T22:02:30.035Z,3.38
2022-08-05T22:04:58.602Z,2.55
2022-08-05T22:07:40.080Z,3.35
2022-08-05T22:10:13.663Z,3.13
2022-08-05T22:12:45.063Z,2.03
2022-08-05T22:16:00.852Z,2.78
2022-08-05T22:18:04.921Z,2.33
2022-08-05T22:20:31.846Z,1.73
2022-08-05T22:23:21.520Z,0.88
2022-08-05T22:26:09.273Z,1.48
2022-08-05T22:28:38.197Z,2.30
2022-08-05T22:31:06.275Z,2.55
2022-08-05T22:33:55.384Z,4.28
2022-08-05T22:36:19.658Z,1.58
2022-08-05T22:38:51.379Z,2.20
2022-08-05T22:42:04.223Z,1.92
2022-08-05T22:44:07.925Z,2.28
2022-08-05T22:46:40.104Z,2.92
2022-08-05T22:49:12.388Z,3.45
2022-08-05T22:52:05.558Z,1.27
2022-08-05T22:54:34.973Z,1.48
2022-08-05T22:57:01.688Z,0.88
2022-08-05T22:59:48.520Z,1.65
2022-08-05T23:02:17.652Z,0.90
2022-08-05T23:04:51.567Z,4.10
2022-08-05T23:07:21.952Z,1.48
2022-08-05T23:09:57.728Z,1.73
2022-08-05T23:12:32.710Z,2.97
2022-08-05T23:15:03.431Z,2.03
2022-08-05T23:17:35.106Z,5.63
2022-08-05T23:20:17.412Z,2.17
2022-08-05T23:22:48.247Z,2.97
2022-08-05T23:25:17.049Z,0.95
2022-08-05T23:28:03.543Z,3.10
2022-08-05T23:30:40.500Z,2.00
2022-08-05T23:33:19.069Z,3.15
2022-08-05T23:35:52.111Z,4.20
2022-08-05T23:38:22.378Z,1.73
2022-08-05T23:40:49.365Z,5.15
2022-08-05T23:43:25.423Z,5.40
2022-08-05T23:46:03.447Z,2.17
2022-08-05T23:48:29.979Z,2.60
2022-08-05T23:50:56.546Z,2.92
2022-08-05T23:53:46.156Z,2.23
2022-08-05T23:56:11.758Z,4.57
2022-08-05T23:58:38.655Z,2.20
